Aviation Digital Data Service (ADDS)

Output produced by METARs form (2347 UTC 20 January 2019)
found at http://www.aviationweather.gov/metar/data/
 
Forecast for: WPDL (DILLI ARPT/TIMOR, TP)
Text: TAF WPDL 202253Z 2100/2112 30010KT 9999 SCT025
Forecast period: 0000 to 1200 UTC 21 January 2019
Forecast type: FROM: standard forecast or significant change
Winds: from the WNW (300 degrees) at 12 MPH (10 knots; 5.1 m/s)
Visibility: 6 or more miles 10+ km)
Ceiling: at least 12,000 feet AGL
Clouds: scattered clouds at 2500 feet AGL
Weather: no significant weather forecast for this period
Text: PROB30
Forecast period: 0000 to 1200 UTC 21 January 2019
Forecast type: TEMPORARY: The following changes expected for less than half the time period
Winds: variable direction winds at 23 MPH (20 knots; 10.3 m/s)
gusting to 40 MPH (35 knots; 18.0 m/s)
Visibility: 0.62 miles (1.00 km)
Ceiling: 1000 feet AGL
Clouds: broken clouds at 1000 feet AGL
scattered clouds at 2000 feet AGL
Weather: TSRA  (rain associated with thunderstorm(s))